Time;durP1;ratioP1;P1;durP2;ratioP2;P2;SDS_P1;SDS_P2;PMS_P1;PMS_P2;Temp;Humidity;BMP_temperature;BMP_pressure;BME280_temperature;BME280_humidity;BME280_pressure;Samples;Min_cycle;Max_cycle;Signal;HPM_P1;HPM_P2
2023/05/30 00:01:19;;;;;;;13.73;3.20;;;;;;;15.10;47.70;102523.56;5030723;28;20072;-65
2023/05/30 00:03:45;;;;;;;12.43;3.17;;;;;;;15.04;47.66;102524.53;5028098;28;20039;-64
2023/05/30 00:06:11;;;;;;;8.93;2.55;;;;;;;15.01;48.16;102525.84;5026578;28;20075;-64
2023/05/30 00:08:36;;;;;;;11.57;2.80;;;;;;;15.00;47.62;102528.91;5030314;28;20045;-64
2023/05/30 00:11:02;;;;;;;10.88;3.13;;;;;;;14.88;48.34;102526.09;5023902;28;20374;-64
2023/05/30 00:13:28;;;;;;;12.00;3.10;;;;;;;14.96;48.10;102536.94;5013463;28;20022;-64
2023/05/30 00:15:55;;;;;;;15.05;3.38;;;;;;;14.93;48.38;102540.19;5011127;28;20521;-63
2023/05/30 00:18:22;;;;;;;15.05;3.38;;;;;;;14.94;48.43;102536.34;5010643;28;20105;-64
2023/05/30 00:20:48;;;;;;;19.83;3.47;;;;;;;14.84;48.52;102536.91;5017460;28;20554;-65
2023/05/30 00:23:14;;;;;;;15.88;2.85;;;;;;;14.75;48.72;102532.78;5013533;28;20037;-65
2023/05/30 00:25:40;;;;;;;10.13;3.13;;;;;;;14.71;49.01;102532.41;5011529;28;20029;-65
2023/05/30 00:28:07;;;;;;;15.88;3.05;;;;;;;14.68;49.32;102534.81;5010003;28;20128;-66
2023/05/30 00:30:36;;;;;;;14.65;2.88;;;;;;;14.72;49.60;102539.69;5025193;28;20894;-65
2023/05/30 00:33:01;;;;;;;16.40;3.08;;;;;;;14.64;49.94;102536.41;5025192;28;20021;-66
2023/05/30 00:35:27;;;;;;;15.43;3.00;;;;;;;14.64;49.86;102533.59;5010402;28;20096;-66
2023/05/30 00:37:52;;;;;;;14.02;3.40;;;;;;;14.61;49.74;102543.31;5024943;28;20040;-65
2023/05/30 00:40:17;;;;;;;12.27;2.80;;;;;;;14.63;50.04;102543.09;5030226;28;20030;-65
2023/05/30 00:42:42;;;;;;;10.38;2.40;;;;;;;14.61;49.81;102534.91;5024180;28;20110;-65
2023/05/30 00:45:08;;;;;;;11.02;2.90;;;;;;;14.64;49.91;102539.19;5021563;28;20022;-65
2023/05/30 00:47:35;;;;;;;14.38;3.17;;;;;;;14.59;50.23;102544.66;5016039;28;20025;-66
2023/05/30 00:50:00;;;;;;;11.15;2.67;;;;;;;14.52;50.31;102543.91;5012348;28;20025;-66
2023/05/30 00:52:26;;;;;;;15.27;3.53;;;;;;;14.54;50.30;102548.16;5010070;28;20026;-65
2023/05/30 00:54:53;;;;;;;11.48;2.80;;;;;;;14.44;50.57;102545.91;5010675;28;20554;-65
2023/05/30 00:57:18;;;;;;;15.15;3.50;;;;;;;14.49;50.39;102551.66;5011779;28;20116;-66
2023/05/30 00:59:44;;;;;;;14.85;2.78;;;;;;;14.45;50.67;102558.78;5010685;28;20141;-65
2023/05/30 01:02:10;;;;;;;16.15;3.50;;;;;;;14.52;50.84;102557.88;5014738;28;20588;-65
2023/05/30 01:04:35;;;;;;;14.80;3.28;;;;;;;14.39;51.13;102550.50;5019707;28;20049;-66
2023/05/30 01:07:01;;;;;;;15.15;3.38;;;;;;;14.36;51.19;102554.63;5027929;28;20465;-66
2023/05/30 01:09:27;;;;;;;13.80;3.42;;;;;;;14.35;51.34;102550.13;5030532;28;20040;-65
2023/05/30 01:12:16;;;;;;;15.23;3.65;;;;;;;14.38;50.96;102546.00;5030249;28;20022;-66
2023/05/30 01:14:57;;;;;;;14.18;3.08;;;;;;;14.39;50.83;102553.31;5019908;28;20037;-65
2023/05/30 01:17:52;;;;;;;16.52;3.28;;;;;;;14.30;51.03;102547.16;5014805;28;20061;-65
2023/05/30 01:20:20;;;;;;;18.95;3.40;;;;;;;14.21;51.87;102548.59;5027102;28;20034;-66
2023/05/30 01:23:04;;;;;;;14.45;2.92;;;;;;;14.31;51.08;102548.06;5024511;28;20030;-65
2023/05/30 01:25:35;;;;;;;14.63;3.08;;;;;;;14.30;51.48;102543.53;5009914;28;20018;-66
2023/05/30 01:28:06;;;;;;;14.20;3.35;;;;;;;14.25;52.00;102544.25;5009634;28;20409;-66
2023/05/30 01:30:36;;;;;;;15.10;3.22;;;;;;;14.12;51.87;102538.84;5023101;28;20083;-66
2023/05/30 01:33:03;;;;;;;16.33;3.33;;;;;;;14.16;51.78;102540.94;5029630;28;20598;-65
2023/05/30 01:35:28;;;;;;;12.85;3.45;;;;;;;14.15;52.07;102547.63;5025406;28;20445;-65
2023/05/30 01:37:54;;;;;;;21.33;3.70;;;;;;;14.12;52.08;102553.66;5010713;28;20045;-66
2023/05/30 01:40:23;;;;;;;17.10;3.67;;;;;;;14.00;52.19;102561.13;5018475;28;20029;-66
2023/05/30 01:42:54;;;;;;;14.73;3.30;;;;;;;14.02;52.58;102556.16;5031540;28;20021;-65
2023/05/30 01:45:40;;;;;;;13.38;3.47;;;;;;;13.99;52.24;102551.91;5033602;28;20029;-66
2023/05/30 01:48:18;;;;;;;15.52;3.60;;;;;;;14.00;52.00;102556.41;5031545;28;20033;-65
2023/05/30 01:50:48;;;;;;;16.63;3.25;;;;;;;13.90;52.37;102561.66;5025434;28;20037;-65
2023/05/30 01:53:29;;;;;;;13.18;3.33;;;;;;;13.97;52.55;102562.44;5013592;28;20500;-65
2023/05/30 01:55:58;;;;;;;14.43;3.60;;;;;;;13.96;52.91;102563.53;5012733;28;20041;-65
2023/05/30 01:58:24;;;;;;;12.95;3.30;;;;;;;13.95;52.80;102559.06;5019311;28;20843;-66
2023/05/30 02:00:52;;;;;;;16.52;3.47;;;;;;;13.91;52.74;102566.19;5013485;28;20037;-66
2023/05/30 02:03:18;;;;;;;14.68;3.63;;;;;;;13.93;52.58;102575.16;5012690;28;20124;-66
2023/05/30 02:05:43;;;;;;;12.52;3.22;;;;;;;13.95;52.48;102569.34;5013700;28;20109;-65
2023/05/30 02:08:08;;;;;;;16.67;3.58;;;;;;;13.99;52.34;102573.41;5013663;28;20034;-65
2023/05/30 02:10:34;;;;;;;14.57;3.42;;;;;;;13.97;52.38;102575.56;5012489;28;20121;-65
2023/05/30 02:12:59;;;;;;;13.52;3.65;;;;;;;13.85;52.95;102581.06;5026886;28;20044;-66
2023/05/30 02:15:24;;;;;;;18.13;4.13;;;;;;;13.86;53.05;102574.41;5028796;28;20029;-65
2023/05/30 02:17:50;;;;;;;15.80;4.18;;;;;;;13.82;53.18;102583.47;5032261;28;20080;-65
2023/05/30 02:20:15;;;;;;;13.88;3.80;;;;;;;13.84;53.21;102587.75;5032712;28;20108;-65
2023/05/30 02:22:40;;;;;;;14.70;3.63;;;;;;;13.79;52.99;102584.78;5017496;28;20044;-65
2023/05/30 02:25:06;;;;;;;12.80;3.72;;;;;;;13.68;53.19;102578.06;5025377;28;20548;-65
2023/05/30 02:27:31;;;;;;;17.88;3.97;;;;;;;13.70;53.32;102587.03;5028973;28;20033;-65
2023/05/30 02:29:56;;;;;;;19.38;4.20;;;;;;;13.68;53.59;102577.19;5012350;28;20077;-66
2023/05/30 02:32:22;;;;;;;13.80;3.47;;;;;;;13.60;53.90;102580.31;5025927;28;20477;-66
2023/05/30 02:34:47;;;;;;;17.63;3.97;;;;;;;13.55;53.91;102580.97;5020136;28;20029;-65
2023/05/30 02:37:12;;;;;;;17.83;3.67;;;;;;;13.57;54.04;102583.56;5022301;28;20136;-66
2023/05/30 02:39:38;;;;;;;13.45;3.42;;;;;;;13.51;53.92;102576.94;5013899;28;20033;-65
2023/05/30 02:42:03;;;;;;;19.48;4.32;;;;;;;13.47;54.16;102579.34;5017503;28;20057;-65
2023/05/30 02:44:28;;;;;;;15.40;3.70;;;;;;;13.50;53.91;102581.66;5019879;28;20528;-66
2023/05/30 02:46:54;;;;;;;17.63;3.97;;;;;;;13.54;53.83;102575.63;5020988;28;20030;-66
2023/05/30 02:49:19;;;;;;;13.02;3.80;;;;;;;13.48;54.08;102578.28;5031543;28;20171;-65
2023/05/30 02:51:44;;;;;;;19.70;4.13;;;;;;;13.49;53.80;102579.97;5018681;28;20045;-65
2023/05/30 02:54:10;;;;;;;18.48;3.80;;;;;;;13.36;54.73;102574.53;5013697;28;20030;-65
2023/05/30 02:56:35;;;;;;;16.63;3.38;;;;;;;13.43;54.45;102571.66;5012621;28;20509;-66
2023/05/30 02:59:00;;;;;;;19.45;4.28;;;;;;;13.42;54.45;102570.81;5028490;28;20043;-65
2023/05/30 03:01:26;;;;;;;17.40;3.85;;;;;;;13.40;54.14;102570.22;5011329;28;20037;-66
2023/05/30 03:03:51;;;;;;;14.88;3.97;;;;;;;13.36;54.13;102574.53;5026425;28;20117;-66
2023/05/30 03:06:18;;;;;;;14.25;3.42;;;;;;;13.36;54.24;102568.97;5017661;28;20025;-65
2023/05/30 03:08:44;;;;;;;14.07;3.53;;;;;;;13.36;54.39;102568.97;5030611;28;20057;-65
2023/05/30 03:11:10;;;;;;;15.43;3.83;;;;;;;13.41;54.36;102559.91;5018852;28;20169;-65
2023/05/30 03:13:35;;;;;;;13.98;3.58;;;;;;;13.35;54.41;102571.97;5014516;28;20108;-66
2023/05/30 03:16:01;;;;;;;13.98;3.40;;;;;;;13.32;54.46;102576.06;5022861;28;20572;-65
2023/05/30 03:18:26;;;;;;;12.38;3.97;;;;;;;13.29;54.63;102578.47;5028235;28;20033;-66
2023/05/30 03:20:52;;;;;;;14.85;3.58;;;;;;;13.27;54.55;102585.09;5012216;28;20057;-66
2023/05/30 03:23:17;;;;;;;16.90;3.90;;;;;;;13.34;54.72;102576.69;5031705;28;20096;-66
2023/05/30 03:25:42;;;;;;;16.58;4.18;;;;;;;13.29;54.75;102587.69;5028343;28;20052;-66
2023/05/30 03:28:08;;;;;;;17.40;3.90;;;;;;;13.27;55.11;102593.47;5022087;28;20112;-65
2023/05/30 03:30:34;;;;;;;18.85;3.90;;;;;;;13.19;55.14;102588.16;5024113;28;20034;-66
2023/05/30 03:33:00;;;;;;;16.23;3.90;;;;;;;13.29;54.99;102590.47;5015086;28;20029;-65
2023/05/30 03:35:25;;;;;;;14.80;3.92;;;;;;;13.25;55.16;102597.59;5009745;28;20382;-65
2023/05/30 03:37:50;;;;;;;17.85;4.05;;;;;;;13.27;55.17;102590.69;5018814;28;20116;-65
2023/05/30 03:40:16;;;;;;;17.33;3.70;;;;;;;13.31;54.74;102601.41;5022968;28;20036;-66
2023/05/30 03:42:41;;;;;;;15.13;3.83;;;;;;;13.30;54.72;102602.47;5020185;28;20041;-65
2023/05/30 03:45:07;;;;;;;14.93;4.00;;;;;;;13.34;54.87;102601.78;5022473;28;20556;-65
2023/05/30 03:47:32;;;;;;;13.63;3.42;;;;;;;13.35;55.20;102606.28;5022510;28;20037;-65
2023/05/30 03:49:59;;;;;;;16.25;3.90;;;;;;;13.31;54.99;102620.91;5026620;28;20033;-66
2023/05/30 03:52:24;;;;;;;16.08;4.38;;;;;;;13.32;54.90;102611.47;5013209;28;20022;-65
2023/05/30 03:54:50;;;;;;;18.27;4.43;;;;;;;13.23;55.26;102614.53;5017267;28;20037;-65
2023/05/30 03:57:15;;;;;;;13.68;3.53;;;;;;;13.24;55.33;102618.19;5012064;28;20473;-66
2023/05/30 03:59:40;;;;;;;14.80;3.67;;;;;;;13.23;55.50;102622.06;5028576;28;20033;-66
2023/05/30 04:02:05;;;;;;;15.43;4.25;;;;;;;13.22;55.17;102623.09;5016294;28;20056;-65
2023/05/30 04:04:31;;;;;;;19.63;4.45;;;;;;;13.27;55.39;102623.31;5019908;28;20052;-66
2023/05/30 04:06:58;;;;;;;17.50;4.15;;;;;;;13.26;55.56;102619.66;5023170;28;20038;-65
2023/05/30 04:09:23;;;;;;;12.75;4.05;;;;;;;13.27;55.30;102623.31;5011569;28;20041;-65
2023/05/30 04:11:48;;;;;;;18.60;4.18;;;;;;;13.27;55.22;102620.50;5011449;28;20832;-65
2023/05/30 04:14:14;;;;;;;15.25;4.28;;;;;;;13.29;55.29;102615.56;5027639;28;20485;-65
2023/05/30 04:16:39;;;;;;;13.07;4.30;;;;;;;13.30;55.54;102619.22;5017946;28;20053;-65
2023/05/30 04:19:05;;;;;;;15.10;3.85;;;;;;;13.23;55.84;102620.13;5019425;28;20029;-65
2023/05/30 04:21:30;;;;;;;11.65;3.75;;;;;;;13.22;55.97;102617.53;5013374;28;20025;-65
2023/05/30 04:23:55;;;;;;;15.77;4.07;;;;;;;13.23;56.26;102620.13;5020637;28;20091;-65
2023/05/30 04:26:22;;;;;;;20.25;4.03;;;;;;;13.21;56.49;102619.47;5017499;28;20029;-65
2023/05/30 04:28:48;;;;;;;18.92;4.22;;;;;;;13.19;56.14;102615.19;5015741;28;20026;-64
2023/05/30 04:31:14;;;;;;;20.00;4.50;;;;;;;13.16;56.32;102612.84;5009517;28;20038;-65
2023/05/30 04:33:39;;;;;;;16.55;4.47;;;;;;;13.21;55.82;102613.03;5026814;28;20582;-65
2023/05/30 04:36:09;;;;;;;16.58;4.15;;;;;;;13.17;56.49;102612.66;5011437;28;20037;-65
2023/05/30 04:38:34;;;;;;;15.13;4.35;;;;;;;13.21;55.93;102611.09;5011790;28;20037;-65
2023/05/30 04:41:02;;;;;;;14.02;3.90;;;;;;;13.19;56.22;102610.47;5016788;28;20060;-65
2023/05/30 04:43:31;;;;;;;17.40;4.50;;;;;;;13.19;56.55;102617.97;5020956;28;20021;-65
2023/05/30 04:46:00;;;;;;;19.15;4.38;;;;;;;13.24;56.29;102620.97;5019703;28;20029;-65
2023/05/30 04:48:27;;;;;;;18.15;4.55;;;;;;;13.27;56.29;102621.38;5014505;28;20045;-65
2023/05/30 04:50:53;;;;;;;14.93;4.10;;;;;;;13.28;56.16;102616.63;5012122;28;20473;-65
2023/05/30 04:53:20;;;;;;;16.05;4.20;;;;;;;13.17;56.82;102621.00;5016548;28;20028;-65
2023/05/30 04:55:46;;;;;;;14.68;4.22;;;;;;;13.30;56.56;102608.06;5010474;28;20034;-65
2023/05/30 04:58:13;;;;;;;15.43;4.60;;;;;;;13.31;56.60;102615.34;5018262;28;20037;-65
2023/05/30 05:00:40;;;;;;;14.80;4.25;;;;;;;13.29;56.57;102621.16;5023652;28;20465;-65
2023/05/30 05:03:06;;;;;;;16.38;4.43;;;;;;;13.34;56.25;102620.47;5011092;28;20113;-65
2023/05/30 05:05:31;;;;;;;18.27;4.80;;;;;;;13.30;56.35;102622.00;5009113;28;20049;-65
2023/05/30 05:07:57;;;;;;;15.93;5.13;;;;;;;13.32;56.03;102614.25;5011290;28;20422;-65
2023/05/30 05:10:22;;;;;;;13.43;3.83;;;;;;;13.40;56.28;102619.53;5022404;28;20030;-64
2023/05/30 05:12:47;;;;;;;18.48;4.75;;;;;;;13.43;56.31;102621.88;5027711;28;20124;-64
2023/05/30 05:15:13;;;;;;;17.00;4.78;;;;;;;13.41;56.16;102621.25;5025284;28;20309;-64
2023/05/30 05:17:38;;;;;;;13.63;4.80;;;;;;;13.43;56.29;102622.72;5016809;28;20124;-65
2023/05/30 05:20:07;;;;;;;14.70;4.55;;;;;;;13.42;55.85;102612.66;5028206;28;20444;-64
2023/05/30 05:22:34;;;;;;;13.23;4.25;;;;;;;13.38;56.20;102614.19;5013889;28;20041;-64
2023/05/30 05:25:00;;;;;;;16.00;4.63;;;;;;;13.42;56.05;102628.53;5019991;28;20088;-64
2023/05/30 05:27:26;;;;;;;13.05;4.40;;;;;;;13.47;56.13;102621.19;5016845;28;20026;-65
2023/05/30 05:29:51;;;;;;;16.50;4.43;;;;;;;13.48;56.17;102619.28;5025395;28;20021;-65
2023/05/30 05:32:16;;;;;;;12.80;4.88;;;;;;;13.50;55.83;102628.25;5014215;28;20034;-65
2023/05/30 05:34:42;;;;;;;16.40;4.93;;;;;;;13.48;56.05;102622.91;5020038;28;20087;-65
2023/05/30 05:37:08;;;;;;;13.05;4.55;;;;;;;13.54;55.78;102618.31;5030012;28;20028;-65
2023/05/30 05:39:33;;;;;;;16.27;4.70;;;;;;;13.54;56.01;102621.13;5018188;28;20037;-65
2023/05/30 05:42:01;;;;;;;12.82;4.70;;;;;;;13.46;56.23;102619.47;5032624;28;20420;-65
2023/05/30 05:44:26;;;;;;;18.95;5.10;;;;;;;13.48;56.02;102617.31;5033638;28;20029;-65
2023/05/30 05:46:51;;;;;;;16.10;4.72;;;;;;;13.44;55.87;102609.63;5033222;28;20461;-65
2023/05/30 05:49:17;;;;;;;14.98;5.03;;;;;;;13.45;56.23;102617.78;5025323;28;20465;-65
2023/05/30 05:51:42;;;;;;;13.20;4.63;;;;;;;13.46;56.01;102619.47;5021663;28;20044;-65
2023/05/30 05:54:07;;;;;;;15.48;4.78;;;;;;;13.42;56.12;102629.38;5031766;28;20370;-65
2023/05/30 05:56:33;;;;;;;16.35;5.07;;;;;;;13.44;56.34;102626.34;5026625;28;20026;-65
2023/05/30 05:58:58;;;;;;;17.02;5.20;;;;;;;13.49;56.18;102630.19;5013193;28;20034;-65
2023/05/30 06:01:23;;;;;;;14.82;5.35;;;;;;;13.49;55.89;102632.97;5012580;28;20046;-65
2023/05/30 06:03:48;;;;;;;18.85;5.38;;;;;;;13.48;55.91;102628.47;5017247;28;20029;-66
2023/05/30 06:06:14;;;;;;;13.55;5.30;;;;;;;13.38;55.84;102632.88;5026630;28;20033;-65
2023/05/30 06:08:40;;;;;;;15.27;5.03;;;;;;;13.34;56.56;102637.19;5019141;28;20030;-65
2023/05/30 06:11:05;;;;;;;17.65;5.55;;;;;;;13.27;56.55;102626.94;5016910;28;20097;-65
2023/05/30 06:13:30;;;;;;;15.48;5.70;;;;;;;13.42;56.64;102634.13;5019775;28;20092;-66
2023/05/30 06:15:56;;;;;;;15.98;5.40;;;;;;;13.45;56.14;102633.66;5017754;28;20095;-65
2023/05/30 06:18:21;;;;;;;15.23;5.07;;;;;;;13.47;56.20;102628.69;5019206;28;20037;-65
2023/05/30 06:20:46;;;;;;;12.90;4.93;;;;;;;13.48;55.91;102634.06;5015794;28;20034;-65
2023/05/30 06:23:12;;;;;;;15.52;4.95;;;;;;;13.46;56.38;102632.56;5016712;28;20026;-65
2023/05/30 06:25:37;;;;;;;13.45;5.60;;;;;;;13.42;56.79;102629.38;5014794;28;20141;-65
2023/05/30 06:28:02;;;;;;;16.27;5.82;;;;;;;13.36;56.61;102641.47;5024404;28;20026;-65
2023/05/30 06:30:28;;;;;;;13.48;5.20;;;;;;;13.34;56.55;102629.69;5011418;28;20584;-65
2023/05/30 06:32:53;;;;;;;13.20;5.28;;;;;;;13.40;56.12;102637.16;5024764;28;20446;-65
2023/05/30 06:35:18;;;;;;;14.80;5.78;;;;;;;13.44;56.40;102641.19;5014774;28;20025;-64
2023/05/30 06:37:45;;;;;;;12.77;5.85;;;;;;;13.42;55.94;102637.75;5016876;28;20037;-64
2023/05/30 06:40:10;;;;;;;13.93;5.38;;;;;;;13.43;56.01;102639.44;5031135;28;20116;-65
2023/05/30 06:42:35;;;;;;;10.70;4.95;;;;;;;13.45;55.82;102637.31;5021837;28;20132;-66
2023/05/30 06:45:01;;;;;;;17.63;5.75;;;;;;;13.47;55.65;102640.69;5018450;28;20036;-64
2023/05/30 06:47:26;;;;;;;15.73;5.72;;;;;;;13.42;55.53;102636.91;5010047;28;20033;-64
2023/05/30 06:49:51;;;;;;;17.38;5.28;;;;;;;13.42;55.70;102629.38;5025361;28;20037;-64
2023/05/30 06:52:16;;;;;;;14.45;5.65;;;;;;;13.45;55.41;102633.66;5012902;28;20188;-64
2023/05/30 06:54:42;;;;;;;14.68;6.28;;;;;;;13.42;55.58;102642.47;5012350;28;20033;-64
2023/05/30 06:57:07;;;;;;;17.27;5.50;;;;;;;13.52;55.63;102640.03;5012136;28;20420;-65
2023/05/30 06:59:34;;;;;;;9.95;5.18;;;;;;;13.58;55.50;102646.63;5012241;28;20030;-64
2023/05/30 07:02:00;;;;;;;18.08;5.50;;;;;;;13.64;54.92;102643.78;5016774;28;20108;-64
2023/05/30 07:04:26;;;;;;;10.52;5.32;;;;;;;13.59;55.10;102640.81;5025337;28;20112;-64
2023/05/30 07:06:52;;;;;;;16.00;6.10;;;;;;;13.62;54.72;102643.16;5032241;28;20028;-64
2023/05/30 07:09:17;;;;;;;11.80;5.47;;;;;;;13.63;54.69;102650.41;5032243;28;20025;-65
2023/05/30 07:11:42;;;;;;;13.30;5.57;;;;;;;13.67;54.53;102656.41;5029690;28;20390;-65
2023/05/30 07:14:08;;;;;;;13.25;5.75;;;;;;;13.68;54.75;102658.13;5031835;28;20029;-65
2023/05/30 07:16:33;;;;;;;11.63;5.20;;;;;;;13.66;54.27;102654.69;5031349;28;20506;-65
2023/05/30 07:18:58;;;;;;;15.35;5.90;;;;;;;13.64;54.55;102651.31;5031894;28;20134;-65
2023/05/30 07:21:27;;;;;;;13.98;5.72;;;;;;;13.81;54.83;102655.19;5025307;28;20056;-65
2023/05/30 07:23:52;;;;;;;9.85;5.88;;;;;;;13.95;54.87;102662.34;5016674;28;20041;-65
2023/05/30 07:26:17;;;;;;;15.43;5.72;;;;;;;14.13;54.00;102660.63;5011161;28;20029;-65
2023/05/30 07:28:43;;;;;;;13.95;5.57;;;;;;;14.27;53.59;102655.75;5014501;28;20033;-65
2023/05/30 07:31:08;;;;;;;14.00;6.20;;;;;;;14.31;53.08;102645.81;5011260;28;20030;-64
2023/05/30 07:33:33;;;;;;;13.50;5.70;;;;;;;14.40;53.26;102656.41;5011107;28;20041;-65
2023/05/30 07:35:58;;;;;;;12.00;5.90;;;;;;;14.42;53.08;102661.75;5020569;28;20041;-64
2023/05/30 07:38:24;;;;;;;12.57;5.38;;;;;;;14.36;53.16;102671.94;5024517;28;20102;-64
2023/05/30 07:40:49;;;;;;;14.85;6.20;;;;;;;14.36;52.65;102666.34;5009998;28;20041;-64
2023/05/30 07:43:14;;;;;;;12.73;5.93;;;;;;;14.31;53.05;102665.38;5013610;28;20049;-65
2023/05/30 07:45:40;;;;;;;14.73;6.20;;;;;;;14.24;53.38;102673.81;5030005;28;20396;-65
2023/05/30 07:48:05;;;;;;;11.48;5.95;;;;;;;14.30;53.17;102667.28;5012024;28;20034;-65
2023/05/30 07:50:30;;;;;;;14.00;6.20;;;;;;;14.35;53.42;102678.63;5011225;28;20018;-65
2023/05/30 07:52:56;;;;;;;10.95;5.72;;;;;;;14.44;52.62;102662.41;5011339;28;20153;-65
2023/05/30 07:55:21;;;;;;;11.05;6.55;;;;;;;14.52;52.71;102666.84;5009849;28;20053;-65
2023/05/30 07:57:46;;;;;;;13.68;5.97;;;;;;;14.68;52.98;102658.66;5028316;28;20497;-65
2023/05/30 08:00:12;;;;;;;13.57;6.70;;;;;;;14.82;52.33;102639.75;5015795;28;20030;-65
2023/05/30 08:02:38;;;;;;;10.27;6.05;;;;;;;14.98;52.83;102643.81;5010134;28;20487;-65
2023/05/30 08:05:03;;;;;;;14.80;6.38;;;;;;;15.05;51.61;102644.56;5015477;28;20065;-65
2023/05/30 08:07:31;;;;;;;11.27;5.65;;;;;;;15.12;51.63;102644.44;5019253;28;20036;-65
2023/05/30 08:09:56;;;;;;;16.45;6.60;;;;;;;15.15;51.08;102638.38;5011061;28;20092;-63
2023/05/30 08:12:24;;;;;;;11.10;6.05;;;;;;;15.16;51.00;102645.66;5017480;28;20713;-65
2023/05/30 08:14:50;;;;;;;14.90;6.15;;;;;;;15.12;51.03;102650.88;5015071;28;20091;-65
2023/05/30 08:17:16;;;;;;;13.52;6.90;;;;;;;15.12;51.18;102644.44;5015205;28;20572;-63
2023/05/30 08:19:42;;;;;;;13.00;6.22;;;;;;;15.03;50.85;102643.09;5019956;28;20512;-64
2023/05/30 08:22:08;;;;;;;11.48;6.38;;;;;;;15.01;51.09;102646.09;5017960;28;20071;-65
2023/05/30 08:24:35;;;;;;;15.18;6.30;;;;;;;15.06;51.34;102646.25;5011114;28;20252;-65
2023/05/30 08:27:01;;;;;;;11.98;5.95;;;;;;;15.17;51.03;102641.78;5020075;28;20436;-65
2023/05/30 08:29:26;;;;;;;13.30;5.75;;;;;;;15.18;50.74;102649.94;5029171;28;20183;-65
2023/05/30 08:31:51;;;;;;;12.63;5.75;;;;;;;15.19;50.27;102647.97;5026782;28;20038;-65
2023/05/30 08:34:17;;;;;;;12.38;6.78;;;;;;;15.18;50.60;102637.91;5011956;28;20033;-66
2023/05/30 08:36:42;;;;;;;13.57;6.28;;;;;;;15.22;50.64;102642.75;5027779;28;20037;-66
2023/05/30 08:39:07;;;;;;;9.18;5.78;;;;;;;15.32;50.73;102644.09;5030699;28;20374;-65
2023/05/30 08:41:32;;;;;;;12.88;7.15;;;;;;;15.36;50.00;102637.78;5025950;28;20117;-65
2023/05/30 08:43:58;;;;;;;13.20;6.43;;;;;;;15.43;50.30;102634.88;5010575;28;20025;-65
2023/05/30 08:46:24;;;;;;;13.85;6.25;;;;;;;15.59;50.30;102630.50;5010320;28;20034;-65
2023/05/30 08:48:51;;;;;;;12.30;6.35;;;;;;;15.70;50.08;102624.91;5008863;28;20347;-66
2023/05/30 08:51:19;;;;;;;10.32;6.47;;;;;;;15.84;50.27;102625.53;5016718;28;20845;-65
2023/05/30 08:53:54;;;;;;;10.05;6.50;;;;;;;15.90;49.29;102627.34;5010211;28;20060;-66
2023/05/30 08:56:29;;;;;;;12.80;5.72;;;;;;;15.95;49.16;102624.66;5010637;28;20437;-65
2023/05/30 08:58:57;;;;;;;13.50;6.82;;;;;;;16.02;48.78;102627.31;5009386;28;20056;-65
2023/05/30 09:01:23;;;;;;;12.05;6.15;;;;;;;16.08;48.90;102622.69;5010385;28;20033;-65
2023/05/30 09:03:49;;;;;;;13.77;6.43;;;;;;;16.15;48.88;102626.19;5008981;28;20644;-65
2023/05/30 09:06:17;;;;;;;16.33;6.15;;;;;;;16.20;48.61;102618.75;5013014;28;20037;-66
2023/05/30 09:08:46;;;;;;;11.82;6.28;;;;;;;16.27;48.39;102624.22;5010417;28;20092;-65
2023/05/30 09:11:13;;;;;;;10.40;6.30;;;;;;;16.29;48.46;102619.22;5014136;28;20029;-65
2023/05/30 09:13:40;;;;;;;14.38;6.90;;;;;;;16.36;48.12;102616.28;5012742;28;20101;-65
2023/05/30 09:16:05;;;;;;;11.27;5.95;;;;;;;16.40;47.98;102617.47;5012097;28;20045;-65
2023/05/30 09:18:34;;;;;;;13.25;6.93;;;;;;;16.39;48.08;102611.03;5009099;28;20037;-65
2023/05/30 09:21:00;;;;;;;13.10;6.93;;;;;;;16.48;48.50;102605.00;5010472;28;20056;-66
2023/05/30 09:23:27;;;;;;;17.40;7.80;;;;;;;16.49;47.69;102609.50;5012500;28;20033;-65
2023/05/30 09:25:52;;;;;;;15.02;7.45;;;;;;;16.51;47.79;102604.53;5009478;28;20045;-65
2023/05/30 09:28:25;;;;;;;15.95;7.47;;;;;;;16.50;48.16;102602.78;5010374;28;20034;-65
2023/05/30 09:30:56;;;;;;;13.23;7.30;;;;;;;16.57;48.29;102606.31;5010110;28;20034;-65
2023/05/30 09:33:22;;;;;;;13.57;6.88;;;;;;;16.59;48.48;102606.91;5009532;28;20032;-65
2023/05/30 09:35:53;;;;;;;13.95;7.15;;;;;;;16.63;48.08;102599.72;5010082;28;20038;-65
2023/05/30 09:38:23;;;;;;;15.13;7.85;;;;;;;16.65;47.97;102598.34;5013294;28;20029;-65
2023/05/30 09:40:50;;;;;;;11.57;7.20;;;;;;;16.75;48.59;102592.13;5011787;28;20029;-65
2023/05/30 09:43:30;;;;;;;15.68;7.47;;;;;;;16.83;47.77;102590.84;5027980;28;20488;-65
2023/05/30 09:45:55;;;;;;;14.35;7.10;;;;;;;16.92;47.19;102592.97;5027019;28;20064;-65
2023/05/30 09:48:21;;;;;;;13.43;7.60;;;;;;;17.00;47.50;102590.84;5028598;28;20021;-65
2023/05/30 09:50:48;;;;;;;13.85;7.78;;;;;;;17.10;47.69;102593.84;5025811;28;20131;-65
2023/05/30 09:53:13;;;;;;;11.73;8.15;;;;;;;17.18;47.47;102582.19;5008762;28;20572;-65
2023/05/30 09:55:38;;;;;;;14.50;7.68;;;;;;;17.23;47.00;102587.88;5009892;28;20034;-65
2023/05/30 09:58:03;;;;;;;14.95;7.32;;;;;;;17.29;46.38;102586.00;5010608;28;20038;-65
2023/05/30 10:00:29;;;;;;;15.82;7.72;;;;;;;17.36;46.32;102581.91;5009371;28;20034;-65
2023/05/30 10:02:56;;;;;;;10.88;7.18;;;;;;;17.43;46.07;102578.94;5010940;28;20029;-65
2023/05/30 10:05:27;;;;;;;14.48;7.50;;;;;;;17.52;46.42;102580.19;5013431;28;20018;-65
2023/05/30 10:07:57;;;;;;;14.02;7.80;;;;;;;17.53;45.98;102575.44;5011794;28;20041;-65
2023/05/30 10:10:23;;;;;;;14.30;7.75;;;;;;;17.57;46.48;102576.63;5013451;28;20095;-65
2023/05/30 10:12:51;;;;;;;16.23;8.43;;;;;;;17.56;45.21;102574.91;5012946;28;20824;-65
2023/05/30 10:15:18;;;;;;;12.85;8.20;;;;;;;17.52;45.61;102579.34;5017488;28;20087;-65
2023/05/30 10:18:07;;;;;;;15.30;7.55;;;;;;;17.60;46.26;102564.84;5032553;28;20049;-65
2023/05/30 10:20:36;;;;;;;13.93;8.52;;;;;;;17.64;46.31;102574.47;5032543;28;20515;-65
2023/05/30 10:23:06;;;;;;;16.58;9.05;;;;;;;17.63;45.15;102578.38;5032572;28;20079;-65
2023/05/30 10:25:35;;;;;;;13.88;8.35;;;;;;;17.65;46.18;102581.81;5032669;28;20021;-66
2023/05/30 10:28:03;;;;;;;15.95;8.20;;;;;;;17.77;46.13;102588.19;5032941;28;20384;-65
2023/05/30 10:30:30;;;;;;;17.30;7.82;;;;;;;17.84;45.71;102579.53;5026084;28;20024;-65
2023/05/30 10:33:08;;;;;;;13.68;8.50;;;;;;;17.88;45.36;102573.16;5032768;28;20500;-66
2023/05/30 10:35:35;;;;;;;16.58;8.55;;;;;;;17.91;44.29;102571.78;5032042;28;20029;-66
2023/05/30 10:38:04;;;;;;;15.63;8.82;;;;;;;17.90;44.58;102570.09;5032155;28;20524;-65
2023/05/30 10:40:39;;;;;;;18.80;9.50;;;;;;;18.01;45.01;102565.47;5031943;28;20881;-65
2023/05/30 10:43:43;;;;;;;17.60;9.02;;;;;;;18.02;45.30;102565.19;5032093;28;20049;-65
2023/05/30 10:46:47;;;;;;;19.75;9.52;;;;;;;18.07;45.21;102565.25;5010939;28;20044;-66
2023/05/30 10:49:20;;;;;;;15.15;8.18;;;;;;;18.12;44.87;102550.44;4928506;29;20036;-67
2023/05/30 10:52:05;;;;;;;14.40;7.90;;;;;;;18.18;44.88;102554.13;4998674;28;20115;-65
2023/05/30 10:54:32;;;;;;;14.00;8.02;;;;;;;18.20;44.57;102561.19;5012555;28;20033;-65
2023/05/30 10:56:59;;;;;;;14.00;8.05;;;;;;;18.20;44.39;102554.75;5011719;28;20022;-66
2023/05/30 10:59:25;;;;;;;13.90;8.50;;;;;;;18.22;44.98;102556.16;5012427;28;20096;-65
2023/05/30 11:02:02;;;;;;;15.85;8.98;;;;;;;18.23;44.88;102549.41;5012741;28;20029;-65
2023/05/30 11:04:32;;;;;;;12.77;7.95;;;;;;;18.30;43.90;102552.88;5031571;28;20080;-65
2023/05/30 11:06:57;;;;;;;13.32;7.72;;;;;;;18.30;43.45;102538.81;5031950;28;20056;-65
2023/05/30 11:09:22;;;;;;;14.85;8.32;;;;;;;18.35;43.90;102540.81;5015114;28;20021;-65
2023/05/30 11:11:56;;;;;;;12.38;6.32;;;;;;;18.59;46.87;102533.78;5016453;28;20029;-64
2023/05/30 11:14:29;;;;;;;10.35;6.40;;;;;;;18.68;44.79;102531.34;5025179;28;20048;-64
2023/05/30 11:16:55;;;;;;;16.75;7.93;;;;;;;18.71;43.63;102541.25;5027875;28;20139;-64